Hervé Gaillard

Chefscout - Dijon
3 Apr 2027
Samstag
Verarbeitung

Persönlichkeit

Anpassungsfähigkeit (14) Ehrgeiz (8) Kontroverse (1) Loyalität (17) Druck (6) Professionalität (13) Fairness (16) Temperament (17)

Profil

Trainerstil Demokratisch
Lizenz Kontinentale A
Entschlossenheit 9
Menschenführung 11
Motivation 7
Disziplin 6
Arbeitszufriedenheit
54%
Ermüdung
0%
Rolle Chefscout
Gehalt 22.3K p/W
Vertrag 14.03.2030

Leistung

Verhalten Gut
Trainingseffektivität
33%
Spielerentwicklung
50%
Verletzungsprävention
35%
Taktische Umsetzung
60%

Letzte Ereignisse

Spieler begutachtet jetzt
Spieler begutachtet jetzt
Nahm an einer Scouting-Besprechung teil jetzt
Empfahl ein Transferziel jetzt
Spieler begutachtet jetzt
Spieler begutachtet jetzt
Spieler begutachtet 7T her
Spieler begutachtet 7T her

Aktuell beobachtet

213
Spieler Verein Status Fähigkeit Vertrauen Beobachtet Zuletzt beobachtet Letzte Stimme
Benito Raman KV Mechelen Aktiv 119 / 112 40% 5 02.04.2027 -
Sam Nombe Milton Keynes Dons Aktiv 108 / 102 40% 1 02.04.2027 -
Thomas Henry Standard Liege Aktiv 125 / 114 40% 7 01.04.2027 -
Shokry Naguib Arab Contractors Aktiv 109 / 118 40% 1 01.04.2027 -
Gaël Nsombi US Creteil Aktiv 110 / 106 40% 2 31.03.2027 -
Chico Banza Zamalek Aktiv 111 / 117 40% 1 31.03.2027 -
Marcus Browne AFC Wimbledon Aktiv 109 / 101 40% 2 30.03.2027 -
Demba Seck Partizan Aktiv 129 / 121 40% 1 30.03.2027 -
Reda Laalaoui Westerlo Aktiv 113 / 109 40% 3 29.03.2027 -
Thomas Van Den Keybus Westerlo Aktiv 122 / 114 40% 2 29.03.2027 -
Mika Lusitânia Lourosa Aktiv 108 / 104 40% 2 29.03.2027 -
Bohdan Viunnyk Lechia Aktiv 120 / 122 40% 1 29.03.2027 -
Rui Costa Port Vale Aktiv 115 / 111 40% 3 28.03.2027 -
Christian Carrasco KV Oostende Aktiv 101 / 115 40% 3 28.03.2027 -
Tommaso Biasci Avellino Aktiv 117 / 115 40% 1 28.03.2027 -
Solomon John Mlada Boleslav Aktiv 126 / 123 40% 1 28.03.2027 -
Nikolay Komlichenko Lokomotiv Moscow Aktiv 122 / 121 40% 4 25.03.2027 -
Joel Pohjanpalo Palermo Aktiv 133 / 127 40% 1 25.03.2027 -
Zakaria Naïdji MC Alger Aktiv 122 / 100 40% 2 24.03.2027 -
Chris Ramos Botafogo Aktiv 130 / 123 40% 1 24.03.2027 -
Carlos Paraco Metalist Aktiv 118 / 109 40% 4 23.03.2027 -
Daniel Kyerewaa Reading Aktiv 116 / 112 40% 3 23.03.2027 -
Matty Stevens AFC Wimbledon Aktiv 105 / 112 40% 2 23.03.2027 -
Ramadan Mohsen Zamalek Aktiv 113 / 129 40% 2 23.03.2027 -
Marko Božić Wisla Krakow Aktiv 101 / 111 40% 1 21.03.2027 -
Vladislav Sarveli Nizhniy Novgorod Aktiv 114 / 105 40% 1 21.03.2027 -
Akinkunmi Amoo Ismaily Aktiv 132 / 133 40% 4 20.03.2027 -
Velemseni Ndwandwe Golden Arrows Aktiv 116 / 110 40% 2 20.03.2027 -
Marco Tumminello Benevento Aktiv 112 / 119 40% 1 20.03.2027 -
Anatole Abang USM Alger Aktiv 128 / 106 40% 7 18.03.2027 -
Zayd El Kandoussi Lokeren Aktiv 114 / 110 40% 11 17.03.2027 -
Alimi Sikiru JS Saoura Aktiv 100 / 117 40% 1 17.03.2027 -
Lazar Mijović Cukaricki Aktiv 101 / 111 40% 1 16.03.2027 -
Ibrahim Tarek Masr El Makasa Aktiv 138 / 121 40% 3 15.03.2027 -
Teboho Tau Ajax Cape Town Aktiv 116 / 109 40% 1 15.03.2027 -
Harry Cornick AFC Wimbledon Aktiv 108 / 98 40% 1 13.03.2027 -
Camillo Tavernelli Arezzo Aktiv 119 / 106 40% 1 13.03.2027 -
Egas Cacintura Akhmat Grozny Aktiv 129 / 113 40% 1 12.03.2027 -
Fernand Gouré Westerlo Aktiv 113 / 109 40% 3 11.03.2027 -
Tobias Mohr Standard Liege Aktiv 123 / 114 40% 2 10.03.2027 -
Thomas Amang Omonoia Aktiv 105 / 112 40% 1 10.03.2027 -
Léandre Kuavita Waasland-Beveren Aktiv 117 / 115 40% 1 10.03.2027 -
Nardin Mulahusejnović Vojvodina Aktiv 128 / 106 40% 3 08.03.2027 -
Frédéric Maciel CSKA 1948 Aktiv 127 / 120 40% 2 06.03.2027 -
Gabriel Charpentier Cracovia Aktiv 120 / 112 40% 2 05.03.2027 -
Ismail Azzaoui Lokeren Aktiv 114 / 114 40% 5 04.03.2027 -
Mohammed Bouldini Académico de Viseu Aktiv 125 / 114 40% 3 04.03.2027 -
Luke Molyneux Doncaster Rovers Aktiv 108 / 107 40% 1 04.03.2027 -
Bienvenue Kanakimana Zbrojovka Brno Aktiv 119 / 128 40% 2 02.03.2027 -
Alexandr Yushin Torpedo Moscow Aktiv 94 / 91 40% 1 28.02.2027 -
Mario Ravasio Arezzo Aktiv 103 / 109 40% 1 28.02.2027 -
Martín Pino Antalyaspor Aktiv 114 / 115 40% 3 27.02.2027 -
Yehor Tverdokhlib LNZ Aktiv 113 / 102 40% 2 27.02.2027 -
Mariusz Stępiński Korona Aktiv 127 / 126 40% 1 27.02.2027 -
Mohamed Ali Ben Romdhane Al Ahly Aktiv 139 / 136 40% 1 27.02.2027 -
David Ankeye Zeleznicar Pancevo Aktiv 116 / 119 40% 2 25.02.2027 -
Artem Slesar Zorya Aktiv 118 / 126 40% 1 25.02.2027 -
Connor Barrett Walsall Aktiv 112 / 97 40% 1 24.02.2027 -
Yurii Klymchuk Kolos Aktiv 125 / 116 40% 1 23.02.2027 -
Zé Leite Oliveirense Aktiv 117 / 119 40% 1 23.02.2027 -
Sinoxolo Kwayiba Chippa United Aktiv 110 / 107 40% 2 21.02.2027 -
Isaac Mbenza Charleroi Aktiv 114 / 120 40% 1 21.02.2027 -
Kahraba ENPPI Aktiv 112 / 112 40% 1 21.02.2027 -
Tomáš Chorý Slavia Prague Aktiv 147 / 154 40% 3 20.02.2027 -
Matyáš Vojta Sparta Prague Aktiv 123 / 125 40% 2 18.02.2027 -
Mourad Tijuana Aktiv 125 / 126 40% 5 16.02.2027 -
Lazar Tufegdžić Cukaricki Aktiv 104 / 122 40% 1 15.02.2027 -
John Okoye Ebuka Ittihad Aktiv 131 / 119 40% 2 14.02.2027 -
Nayel Mehssatou KV Kortrijk Aktiv 108 / 117 40% 3 13.02.2027 -
Lucas Di Yorio Santos Laguna Aktiv 103 / 120 40% 2 13.02.2027 -
Łukasz Łakomy OH Leuven Aktiv 126 / 127 40% 3 13.02.2027 -
Iván Tona Tijuana Aktiv 108 / 105 40% 1 13.02.2027 -
Brian Figueroa Morelia Aktiv 122 / 104 40% 2 11.02.2027 -
Yassine Khalifi Charleroi Aktiv 105 / 102 40% 1 11.02.2027 -
Frédéric Lefebvre Tours Aktiv 133 / 123 40% 1 09.02.2027 -
Francisco González Tijuana Aktiv 111 / 112 40% 1 09.02.2027 -
Luis Romo Guadalajara Aktiv 138 / 125 40% 2 08.02.2027 -
Ali Soliman Masr El Makasa Aktiv 118 / 114 40% 1 08.02.2027 -
Alexis Alégué Zbrojovka Brno Aktiv 120 / 121 40% 1 08.02.2027 -
Amur Kalmykov Spartak Kostroma Aktiv 97 / 99 40% 2 07.02.2027 -
Matěj Pulkrab Teplice Aktiv 123 / 100 40% 1 05.02.2027 -
Diber Cambindo Leon Aktiv 120 / 126 40% 3 03.02.2027 -
Grejohn Kyei KAA Gent Aktiv 120 / 115 40% 4 03.02.2027 -
Duk Atlas Aktiv 121 / 128 40% 4 02.02.2027 -
Doğucan Haspolat Westerlo Aktiv 130 / 119 40% 1 31.01.2027 -
Lennard Hens KV Kortrijk Aktiv 124 / 109 40% 3 30.01.2027 -
Rúben Rodrigues Bolton Wanderers Aktiv 115 / 117 40% 1 29.01.2027 -
Dylan Ourega Westerlo Aktiv 120 / 118 40% 6 28.01.2027 -
Kyreece Lisbie Colchester United Aktiv 118 / 110 40% 1 28.01.2027 -
Michael Carcelén Queretaro Aktiv 124 / 105 40% 1 28.01.2027 -
Martin Sekulić Ural Aktiv 116 / 97 40% 1 24.01.2027 -
Nicolás Ibáñez Cruz Azul Aktiv 140 / 118 40% 5 22.01.2027 -
Isa Sakamoto Westerlo Aktiv 115 / 117 40% 4 19.01.2027 -
Mikhail Ignatov Sochi Aktiv 124 / 116 40% 1 18.01.2027 -
Daniel Leclerc Tours Aktiv 120 / 125 40% 3 17.01.2027 -
Paul Onuachu Trabzonspor Aktiv 146 / 114 40% 1 17.01.2027 -
Damien Durand Red Star Aktiv 108 / 119 40% 4 16.01.2027 -
Daniel Vašulín Zbrojovka Brno Aktiv 128 / 110 40% 1 16.01.2027 -
Zakaria Ajoughlal Renaissance Aktiv 98 / 92 40% 1 15.01.2027 -
Siebe Schrijvers OH Leuven Aktiv 126 / 123 40% 3 12.01.2027 -
Nacer Alderweireld KV Oostende Aktiv 108 / 116 40% 1 09.01.2027 -
Jack Currie Oxford United Aktiv 120 / 123 40% 1 05.01.2027 -
Keagan Hlatshwayo SuperSport United Aktiv 122 / 117 40% 3 02.01.2027 -
Dion Beljo Dinamo Zagreb Abgelehnt 131 / 132 64% 1 01.01.2027 Ablehnen
Matthew Hoppe SonderjyskE Aktiv 120 / 102 40% 2 29.12.2026 -
Qara Ozobic Inter Aktiv 96 / 103 40% 2 28.12.2026 -
Diego Valencia Gornik Leczna Aktiv 116 / 112 40% 2 25.12.2026 -
Enrique Lofolomo Zulte Waregem Aktiv 104 / 105 40% 2 24.12.2026 -
Christian Vega Veracruz Aktiv 134 / 131 40% 1 24.12.2026 -
Lucas Passerini Belgrano Aktiv 131 / 115 40% 5 20.12.2026 -
Kevin Velasco Puebla Aktiv 133 / 115 40% 2 20.12.2026 -
Anosike Ementa Zulte Waregem Aktiv 101 / 107 40% 1 20.12.2026 -
Lucas Duarte Felgueiras Aktiv 99 / 108 40% 1 17.12.2026 -
Kyan Vaesen OH Leuven Aktiv 109 / 107 40% 2 15.12.2026 -
Ştefan Baiaram Universitatea Craiova Abgelehnt 113 / 131 40% 2 15.12.2026 Mehr Infos nötig
Peter Itodo Metalist Aktiv 121 / 120 40% 1 15.12.2026 -
Milan Tučić Honved Aktiv 117 / 113 40% 1 13.12.2026 -
Haris Tabaković Red Bull Salzburg Aktiv 136 / 129 40% 3 12.12.2026 -
Casper Nielsen Standard Liege Aktiv 127 / 116 40% 2 11.12.2026 -
Dániel Lukács Puskas Akademia Aktiv 119 / 111 40% 1 11.12.2026 -
Ondrej Duda Zamalek Aktiv 130 / 123 40% 1 11.12.2026 -
Diego Valdés Vélez Abgelehnt 131 / 141 40% 2 09.12.2026 Mehr Infos nötig
Yoshan Valois Lanús Aktiv 119 / 133 40% 2 06.12.2026 -
Rodrigo Aguirre Tigres Aktiv 110 / 128 40% 2 05.12.2026 -
Zakaria Fdaouch AS Nancy Aktiv 99 / 104 40% 1 05.12.2026 -
Nikola Mituljikić Zulte Waregem Aktiv 92 / 95 40% 1 02.12.2026 -
Alejandro Piedrahita Deportivo Pereira Aktiv 120 / 110 40% 5 01.12.2026 -
George Puşcaş Dinamo Bucharest Aktiv 110 / 105 40% 1 29.11.2026 -
Tomás Molina Argentinos Juniors Aktiv 115 / 142 40% 2 28.11.2026 -
Juan Cruz de los Santos Nacional Aktiv 123 / 139 40% 2 27.11.2026 -
Ruyery Blanco Alianza Petrolera Aktiv 104 / 101 40% 1 26.11.2026 -
Alexander Díaz Deportivo Riestra Aktiv 127 / 130 40% 2 24.11.2026 -
Noah Ganaus OB Aktiv 122 / 100 40% 1 24.11.2026 -
Assad Al Hamlawi Universitatea Craiova Aktiv 129 / 133 40% 4 22.11.2026 -
Edarlyn Reyes Arsenal Tula Aktiv 121 / 111 40% 2 22.11.2026 -
Yuki Kakita FC Copenhagen Aktiv 141 / 137 40% 1 22.11.2026 -
Andrey Estupiñán Millonarios Aktiv 118 / 115 40% 4 20.11.2026 -
Youssef Challouk KAA Gent Aktiv 115 / 110 40% 2 19.11.2026 -
Shayne Lavery Cambridge United Aktiv 113 / 109 40% 1 18.11.2026 -
Achraf Bencharki Al Ahly Aktiv 142 / 133 40% 2 17.11.2026 -
Martín Álvarez Barnsley Aktiv 113 / 120 40% 1 17.11.2026 -
Jordan Amavi Sint-Truiden Aktiv 120 / 133 40% 1 16.11.2026 -
Antony Alonso Deportivo Riestra Aktiv 118 / 116 40% 2 15.11.2026 -
Joaquín Correa Estudiantes Aktiv 121 / 135 40% 2 15.11.2026 -
Ricardo Marín Guadalajara Aktiv 128 / 127 40% 2 13.11.2026 -
Stefan Vukić Rudes Aktiv 113 / 111 40% 1 13.11.2026 -
Jefry Zapata Once Caldas Aktiv 118 / 118 40% 3 11.11.2026 -
Leonardo Lopes KAA Gent Aktiv 115 / 125 40% 2 11.11.2026 -
Taiga Hata Sint-Truiden Aktiv 131 / 114 40% 1 11.11.2026 -
Iker Benito Queretaro Aktiv 128 / 124 40% 1 11.11.2026 -
Juan Dinenno Pumas UNAM Aktiv 125 / 134 40% 2 07.11.2026 -
Rodrigo Echeverría Leon Aktiv 138 / 124 40% 1 06.11.2026 -
Marcelo Torres Gimnasia La Plata Aktiv 107 / 128 40% 2 05.11.2026 -
Álex Arce Independiente Rivadavia Aktiv 118 / 134 40% 1 04.11.2026 -
Ludwig Augustinsson Anderlecht Aktiv 126 / 114 40% 2 03.11.2026 -
Alfredo Morelos Atletico Nacional Aktiv 122 / 136 40% 3 01.11.2026 -
Manuel Gutierrez Veracruz Aktiv 140 / 130 40% 1 01.11.2026 -
Fernando Beltrán Leon Aktiv 125 / 121 40% 1 31.10.2026 -
Jordi Cortizo Leon Aktiv 135 / 115 40% 1 31.10.2026 -
Cisse Sandra Westerlo Aktiv 111 / 114 40% 1 31.10.2026 -
Agustín Hausch Defensa y Justicia Aktiv 123 / 108 40% 2 26.10.2026 -
Pierre-Yves Hamel Paris FC Aktiv 123 / 118 40% 2 25.10.2026 -
Kristian Eriksen Molde Aktiv 134 / 123 40% 2 24.10.2026 -
Ryan Fosso Standard Liege Aktiv 123 / 110 40% 1 24.10.2026 -
Marcelo Estigarribia Unión de Santa Fe Aktiv 116 / 115 40% 1 21.10.2026 -
Sam Sanna Stade Lavallois Aktiv 122 / 110 40% 1 20.10.2026 -
Julián Palacios Unión de Santa Fe Aktiv 125 / 111 40% 1 19.10.2026 -
Kevin Londoño Atletico Bucaramanga Aktiv 110 / 116 40% 1 18.10.2026 -
Iñaki Larthirigoyen San Telmo Aktiv 105 / 125 40% 1 17.10.2026 -
Johan Martínez Deportivo Cali Aktiv 135 / 121 40% 1 17.10.2026 -
Robert Petkovic Zadar Aktiv 133 / 113 40% 1 14.10.2026 -
Keano Vanrafelghem KV Mechelen Aktiv 104 / 107 40% 2 12.10.2026 -
Dario Vizinger NK Maribor Aktiv 98 / 107 40% 1 10.10.2026 -
Favio Cabral Mitre Aktiv 109 / 121 40% 1 09.10.2026 -
Maximiliano Caufriez KV Oostende Aktiv 118 / 124 40% 1 09.10.2026 -
Rubén Duarte Pumas UNAM Aktiv 126 / 115 40% 1 09.10.2026 -
Edwar López Deportes Tolima Aktiv 109 / 105 40% 3 07.10.2026 -
Luciano Boggio Nacional Aktiv 112 / 132 40% 1 05.10.2026 -
Facundo Pons San Martín Aktiv 128 / 130 40% 1 02.10.2026 -
Clément Depres Nimes Aktiv 105 / 98 40% 1 27.09.2026 -
Lucio Castillo Colegiales Aktiv 104 / 119 40% 1 25.09.2026 -
Marco Miori Alvarado Aktiv 99 / 96 40% 1 20.09.2026 -
Federico Martínez Liverpool Montevideo Aktiv 128 / 107 40% 1 18.09.2026 -
Franco Fagúndez Estudiantes Aktiv 123 / 99 40% 1 18.09.2026 -
Conrad Wallem Valerenga Aktiv 120 / 141 40% 1 16.09.2026 -
Alvas Powell FC Cincinnati Aktiv 109 / 128 40% 1 16.09.2026 -
Renzo Reynaga Patronato Aktiv 122 / 122 40% 1 16.09.2026 -
Nico López Platense Aktiv 113 / 121 40% 1 15.09.2026 -
Thibault Vlietinck OH Leuven Aktiv 114 / 120 40% 1 12.09.2026 -
Alejandro Melo Temperley Aktiv 123 / 104 40% 1 12.09.2026 -
Fredrik Hammar KV Mechelen Aktiv 118 / 116 40% 2 09.09.2026 -
Leandro Suhr Boston River Aktiv 123 / 128 40% 1 09.09.2026 -
Matías Giménez Rojas Argentinos Juniors Aktiv 122 / 133 40% 1 09.09.2026 -
Lamine Guèye Gillingham Aktiv 117 / 115 40% 1 06.09.2026 -
Mauricio Asenjo Los Andes Aktiv 101 / 130 40% 1 05.09.2026 -
Luciano Cosentino Wanderers Aktiv 132 / 128 40% 1 05.09.2026 -
Nicolás Orellana Audax Italiano Aktiv 126 / 95 40% 1 03.09.2026 -
Jhonatan Candia Barracas Central Aktiv 130 / 116 40% 1 03.09.2026 -
Ibrahim Kanté Stade Brestois Aktiv 90 / 93 62% 1 31.08.2026 Befürworten
Alfredo Garcia La Equidad Aktiv 157 / 151 40% 1 26.08.2026 -
Alan Mozo Pachuca Aktiv 110 / 127 40% 1 26.08.2026 -
Jáder Obrian Santa Fe Aktiv 116 / 105 40% 1 25.08.2026 -
Serxho Ujka Zulte Waregem Aktiv 103 / 106 40% 1 22.08.2026 -
Nicolás Orsini Barracas Central Aktiv 111 / 112 40% 1 21.08.2026 -
Anthony Martial Club Brugge Aktiv 130 / 128 40% 1 20.08.2026 -
Florián Monzón Atlas Aktiv 108 / 125 40% 1 20.08.2026 -
Dennis Ayensa Standard Liege Aktiv 118 / 113 40% 1 19.08.2026 -
Maksim Kireev KV Mechelen Aktiv 126 / 126 40% 1 18.08.2026 -
Denis Bouanga Los Angeles Football Club Verloren 145 / 121 40% 2 13.08.2026 -
Thiago Calone All Boys Aktiv 118 / 126 40% 1 05.08.2026 -
Guillermo Paiva Junior Aktiv 128 / 135 40% 1 03.08.2026 -
Brayan León Mamelodi Sundowns Aktiv 108 / 119 40% 1 03.08.2026 -
Malick Mbaye Zulte Waregem Aktiv 110 / 125 40% 1 01.08.2026 -